FDX5991 VHHH-RJBB
Flight info
| Callsign | FDX5991 |
|---|---|
| Flight time | N/A |
| Altitude | 35000 |
| Route | DALOL V631 ENVAR M750 MADOG Y53 NIXOV |
| Aircraft | B77L/H-SDE1E2E3FGHIJ2J3J4J5M1RWXY/LB1D1 |
Departure
| Time | N/A |
|---|---|
| Airport | Hong Kong International Airport (VHHH) |
Arrival
| Time | 2026-04-30 22:13 |
|---|---|
| Airport | Kansai International Airport (RJBB) |
| Time | Latitude | Longitude | Altitude | Speed | Heading |
|---|---|---|---|---|---|
| 2026-04-30 21:59 | 33.61675 | 134.14093 | 18751 ft | 511 kts | 47° |
| 2026-04-30 21:59 | 33.64113 | 134.17143 | 18215 ft | 506 kts | 47° |
| 2026-04-30 22:00 | 33.68921 | 134.23161 | 17216 ft | 495 kts | 46° |
| 2026-04-30 22:00 | 33.73573 | 134.28996 | 15727 ft | 476 kts | 46° |
| 2026-04-30 22:00 | 33.75838 | 134.31841 | 14849 ft | 468 kts | 46° |
| 2026-04-30 22:01 | 33.78057 | 134.34628 | 14018 ft | 457 kts | 46° |
| 2026-04-30 22:01 | 33.80218 | 134.37346 | 13147 ft | 448 kts | 46° |
| 2026-04-30 22:01 | 33.82361 | 134.40042 | 12357 ft | 437 kts | 46° |
| 2026-04-30 22:01 | 33.84389 | 134.42596 | 11908 ft | 418 kts | 46° |
| 2026-04-30 22:02 | 33.86344 | 134.45061 | 11581 ft | 398 kts | 46° |
| 2026-04-30 22:02 | 33.88217 | 134.47424 | 11312 ft | 379 kts | 46° |
| 2026-04-30 22:02 | 33.89982 | 134.49651 | 11112 ft | 360 kts | 46° |
| 2026-04-30 22:02 | 33.91684 | 134.51799 | 10953 ft | 343 kts | 46° |
| 2026-04-30 22:03 | 33.93292 | 134.53832 | 10527 ft | 337 kts | 46° |
| 2026-04-30 22:03 | 33.94900 | 134.55864 | 10009 ft | 335 kts | 47° |
| 2026-04-30 22:03 | 33.96493 | 134.57881 | 9493 ft | 332 kts | 46° |
| 2026-04-30 22:03 | 33.98071 | 134.59877 | 9050 ft | 326 kts | 46° |
| 2026-04-30 22:04 | 33.99623 | 134.61844 | 8789 ft | 322 kts | 47° |
| 2026-04-30 22:04 | 34.01156 | 134.63786 | 8628 ft | 315 kts | 46° |
| 2026-04-30 22:04 | 34.04136 | 134.67566 | 8396 ft | 310 kts | 47° |
| 2026-04-30 22:05 | 34.05619 | 134.69449 | 8277 ft | 309 kts | 47° |
| 2026-04-30 22:05 | 34.07095 | 134.71323 | 8159 ft | 307 kts | 47° |
| 2026-04-30 22:05 | 34.08557 | 134.73181 | 8046 ft | 307 kts | 47° |
| 2026-04-30 22:05 | 34.10025 | 134.75049 | 7922 ft | 306 kts | 47° |
| 2026-04-30 22:06 | 34.11486 | 134.76906 | 7777 ft | 305 kts | 47° |
| 2026-04-30 22:06 | 34.14399 | 134.80614 | 7516 ft | 302 kts | 47° |
| 2026-04-30 22:06 | 34.15846 | 134.82459 | 7395 ft | 301 kts | 48° |
| 2026-04-30 22:07 | 34.17283 | 134.84290 | 7255 ft | 301 kts | 47° |
| 2026-04-30 22:07 | 34.18627 | 134.86194 | 7148 ft | 298 kts | 54° |
| 2026-04-30 22:07 | 34.19888 | 134.88194 | 6919 ft | 302 kts | 55° |
| 2026-04-30 22:07 | 34.21169 | 134.90186 | 6546 ft | 304 kts | 46° |
| 2026-04-30 22:08 | 34.22780 | 134.91879 | 6176 ft | 304 kts | 39° |
| 2026-04-30 22:08 | 34.24409 | 134.93474 | 5795 ft | 305 kts | 44° |
| 2026-04-30 22:08 | 34.25861 | 134.95349 | 5377 ft | 301 kts | 52° |
| 2026-04-30 22:08 | 34.27163 | 134.97266 | 5014 ft | 294 kts | 53° |
| 2026-04-30 22:09 | 34.28430 | 134.99161 | 4665 ft | 284 kts | 53° |
| 2026-04-30 22:09 | 34.29634 | 135.00969 | 4292 ft | 273 kts | 53° |
| 2026-04-30 22:09 | 34.30802 | 135.02742 | 3927 ft | 263 kts | 54° |
| 2026-04-30 22:09 | 34.31919 | 135.04440 | 3574 ft | 255 kts | 54° |
| 2026-04-30 22:10 | 34.33014 | 135.06096 | 3232 ft | 247 kts | 53° |
| 2026-04-30 22:10 | 34.34081 | 135.07684 | 2894 ft | 240 kts | 53° |
| 2026-04-30 22:10 | 34.35125 | 135.09221 | 2564 ft | 233 kts | 53° |
| 2026-04-30 22:10 | 34.36136 | 135.10701 | 2247 ft | 221 kts | 53° |
| 2026-04-30 22:11 | 34.37904 | 135.13316 | 1649 ft | 180 kts | 53° |
| 2026-04-30 22:11 | 34.38667 | 135.14433 | 1415 ft | 162 kts | 54° |
| 2026-04-30 22:11 | 34.39341 | 135.15463 | 1176 ft | 155 kts | 54° |
| 2026-04-30 22:12 | 34.40032 | 135.16432 | 932 ft | 152 kts | 51° |
| 2026-04-30 22:12 | 34.40714 | 135.17413 | 682 ft | 151 kts | 52° |
| 2026-04-30 22:12 | 34.41348 | 135.18372 | 468 ft | 144 kts | 53° |
| 2026-04-30 22:12 | 34.41999 | 135.19327 | 292 ft | 148 kts | 52° |
| 2026-04-30 22:13 | 34.42636 | 135.20287 | 123 ft | 146 kts | 51° |
| 2026-04-30 22:13 | 34.43247 | 135.21196 | 16 ft | 128 kts | 51° |
| 2026-04-30 22:13 | 34.43631 | 135.21773 | 15 ft | 60 kts | 51° |
| 2026-04-30 22:13 | 34.43799 | 135.22057 | 15 ft | 28 kts | 64° |
| 2026-04-30 22:14 | 34.43829 | 135.22165 | 15 ft | 8 kts | 82° |
| 2026-04-30 22:14 | 34.43835 | 135.22223 | 15 ft | 5 kts | 81° |
| 2026-04-30 22:14 | 34.43839 | 135.22253 | 15 ft | 2 kts | 81° |
| 2026-04-30 22:14 | 34.43842 | 135.22270 | 15 ft | 2 kts | 80° |
| 2026-04-30 22:15 | 34.43847 | 135.22308 | 15 ft | 5 kts | 86° |
| 2026-04-30 22:15 | 34.43836 | 135.22354 | 15 ft | 5 kts | 126° |
| 2026-04-30 22:15 | 34.43804 | 135.22392 | 15 ft | 7 kts | 137° |
| 2026-04-30 22:15 | 34.43760 | 135.22437 | 15 ft | 10 kts | 141° |
| 2026-04-30 22:16 | 34.43700 | 135.22494 | 15 ft | 11 kts | 141° |
| 2026-04-30 22:16 | 34.43641 | 135.22553 | 15 ft | 10 kts | 141° |
| 2026-04-30 22:17 | 34.43521 | 135.22559 | 15 ft | 5 kts | 187° |
| 2026-04-30 22:17 | 34.43487 | 135.22565 | 15 ft | 2 kts | 206° |
| 2026-04-30 22:17 | 34.43444 | 135.22514 | 15 ft | 3 kts | 233° |
| 2026-04-30 22:18 | 34.43438 | 135.22504 | 15 ft | 0 kts | 232° |